createdAt,value
2023-01-02T00:00:51.464Z,10.12
2023-01-02T00:01:51.383Z,10.15
2023-01-02T00:02:51.456Z,10.14
2023-01-02T00:03:51.562Z,10.14
2023-01-02T00:04:51.392Z,10.14
2023-01-02T00:05:51.345Z,10.11
2023-01-02T00:06:51.358Z,10.12
2023-01-02T00:07:51.333Z,10.14
2023-01-02T00:08:51.335Z,10.11
2023-01-02T00:09:51.318Z,10.09
2023-01-02T00:10:53.017Z,10.08
2023-01-02T00:11:51.287Z,10.05
2023-01-02T00:12:51.291Z,10.02
2023-01-02T00:13:51.282Z,9.97
2023-01-02T00:14:51.265Z,9.96
2023-01-02T00:15:51.303Z,9.91
2023-01-02T00:16:51.258Z,9.90
2023-01-02T00:17:51.224Z,9.86
2023-01-02T00:18:51.241Z,9.81
2023-01-02T00:19:51.208Z,9.79
2023-01-02T00:20:51.223Z,9.75
2023-01-02T00:21:51.190Z,9.71
2023-01-02T00:22:51.190Z,9.65
2023-01-02T00:23:51.156Z,9.64
2023-01-02T00:24:51.195Z,9.61
2023-01-02T00:25:51.139Z,9.58
2023-01-02T00:26:51.184Z,9.56
2023-01-02T00:27:51.127Z,9.56
2023-01-02T00:28:51.135Z,9.57
2023-01-02T00:29:51.099Z,9.57
2023-01-02T00:30:51.109Z,9.58
2023-01-02T00:31:51.076Z,9.58
2023-01-02T00:32:51.094Z,9.60
2023-01-02T00:33:51.064Z,9.64
2023-01-02T00:34:51.062Z,9.66
2023-01-02T00:35:51.047Z,9.68
2023-01-02T00:36:51.035Z,9.71
2023-01-02T00:37:51.008Z,9.71
2023-01-02T00:38:51.029Z,9.72
2023-01-02T00:39:50.988Z,9.74
2023-01-02T00:40:50.990Z,9.76
2023-01-02T00:41:50.975Z,9.79
2023-01-02T00:42:50.994Z,9.79
2023-01-02T00:43:50.944Z,9.81
2023-01-02T00:44:50.961Z,9.83
2023-01-02T00:45:50.925Z,9.86
2023-01-02T00:46:51.057Z,9.91
2023-01-02T00:47:50.902Z,9.93
2023-01-02T00:48:50.922Z,9.94
2023-01-02T00:49:50.880Z,9.97
2023-01-02T00:50:50.919Z,10.01
2023-01-02T00:51:50.872Z,10.07
2023-01-02T00:52:50.888Z,10.11
2023-01-02T00:53:50.839Z,10.18
2023-01-02T00:54:50.860Z,10.22
2023-01-02T00:55:50.820Z,10.25
2023-01-02T00:56:50.832Z,10.30
2023-01-02T00:57:50.813Z,10.30
2023-01-02T00:58:50.800Z,10.32
2023-01-02T00:59:50.770Z,10.36
2023-01-02T01:00:50.851Z,10.40
2023-01-02T01:01:50.856Z,10.41
2023-01-02T01:02:50.841Z,10.44
2023-01-02T01:03:50.741Z,10.47
2023-01-02T01:04:50.748Z,10.51
2023-01-02T01:05:50.711Z,10.56
2023-01-02T01:06:50.723Z,10.59
2023-01-02T01:07:50.688Z,10.61
2023-01-02T01:08:50.715Z,10.63
2023-01-02T01:09:50.665Z,10.66
2023-01-02T01:10:50.670Z,10.68
2023-01-02T01:11:50.643Z,10.68
2023-01-02T01:12:50.651Z,10.71
2023-01-02T01:13:50.643Z,10.73
2023-01-02T01:14:50.648Z,10.74
2023-01-02T01:15:50.632Z,10.76
2023-01-02T01:16:50.618Z,10.81
2023-01-02T01:17:50.586Z,10.85
2023-01-02T01:18:50.601Z,10.86
2023-01-02T01:19:50.574Z,10.91
2023-01-02T01:20:50.573Z,10.94
2023-01-02T01:21:50.541Z,10.99
2023-01-02T01:22:50.556Z,11.00
2023-01-02T01:23:50.524Z,11.07
2023-01-02T01:24:50.547Z,11.10
2023-01-02T01:25:50.496Z,11.11
2023-01-02T01:26:50.524Z,11.15
2023-01-02T01:27:50.477Z,11.17
2023-01-02T01:28:50.482Z,11.19
2023-01-02T01:29:50.462Z,11.24
2023-01-02T01:30:50.459Z,11.28
2023-01-02T01:31:50.470Z,11.32
2023-01-02T01:32:50.433Z,11.28
2023-01-02T01:33:50.413Z,11.28
2023-01-02T01:34:50.432Z,11.32
2023-01-02T01:35:50.401Z,11.33
2023-01-02T01:36:50.408Z,11.36
2023-01-02T01:37:50.389Z,11.40
2023-01-02T01:38:50.385Z,11.40
2023-01-02T01:39:55.418Z,11.40
2023-01-02T01:40:50.379Z,11.39
2023-01-02T01:41:50.341Z,11.39
2023-01-02T01:42:50.684Z,11.36
2023-01-02T01:43:50.351Z,11.36
2023-01-02T01:44:50.349Z,11.35
2023-01-02T01:45:50.322Z,11.32
2023-01-02T01:46:50.303Z,11.29
2023-01-02T01:47:50.390Z,11.29
2023-01-02T01:48:50.271Z,11.29
2023-01-02T01:49:50.257Z,11.29
2023-01-02T01:50:50.244Z,11.28
2023-01-02T01:51:50.232Z,11.27
2023-01-02T01:52:50.225Z,11.25
2023-01-02T01:53:50.205Z,11.24
2023-01-02T01:54:50.215Z,11.21
2023-01-02T01:55:50.193Z,11.21
2023-01-02T01:56:50.198Z,11.19
2023-01-02T01:57:50.160Z,11.18
2023-01-02T01:58:50.159Z,11.15
2023-01-02T01:59:50.133Z,11.15
2023-01-02T02:00:50.199Z,11.11
2023-01-02T02:01:50.308Z,11.11
2023-01-02T02:02:50.266Z,11.09
2023-01-02T02:03:50.109Z,11.07
2023-01-02T02:04:50.100Z,11.03
2023-01-02T02:05:50.069Z,11.03
2023-01-02T02:06:50.074Z,10.99
2023-01-02T02:07:50.064Z,10.97
2023-01-02T02:08:50.074Z,10.94
2023-01-02T02:09:50.036Z,10.89
2023-01-02T02:10:50.053Z,10.85
2023-01-02T02:11:50.010Z,10.79
2023-01-02T02:12:50.027Z,10.76
2023-01-02T02:13:49.993Z,10.71
2023-01-02T02:14:50.008Z,10.66
2023-01-02T02:15:49.966Z,10.60
2023-01-02T02:16:50.015Z,10.55
2023-01-02T02:17:49.953Z,10.52
2023-01-02T02:18:49.973Z,10.47
2023-01-02T02:19:49.937Z,10.42
2023-01-02T02:20:49.935Z,10.38
2023-01-02T02:21:49.903Z,10.33
2023-01-02T02:22:49.928Z,10.30
2023-01-02T02:23:49.887Z,10.29
2023-01-02T02:24:49.906Z,10.27
2023-01-02T02:25:49.870Z,10.25
2023-01-02T02:26:49.896Z,10.23
2023-01-02T02:27:49.845Z,10.22
2023-01-02T02:28:49.842Z,10.23
2023-01-02T02:29:49.832Z,10.22
2023-01-02T02:30:49.835Z,10.18
2023-01-02T02:31:49.915Z,10.18
2023-01-02T02:32:49.812Z,10.17
2023-01-02T02:33:49.781Z,10.15
2023-01-02T02:34:49.779Z,10.15
2023-01-02T02:35:49.773Z,10.12
2023-01-02T02:36:49.762Z,10.11
2023-01-02T02:37:49.734Z,10.07
2023-01-02T02:38:49.766Z,10.05
2023-01-02T02:39:49.716Z,10.07
2023-01-02T02:40:49.742Z,10.07
2023-01-02T02:41:49.696Z,10.07
2023-01-02T02:42:49.708Z,10.05
2023-01-02T02:43:49.667Z,10.07
2023-01-02T02:44:49.693Z,10.05
2023-01-02T02:45:49.688Z,10.08
2023-01-02T02:46:49.661Z,10.08
2023-01-02T02:47:49.639Z,10.07
2023-01-02T02:48:49.643Z,10.08
2023-01-02T02:49:49.607Z,10.08
2023-01-02T02:50:49.627Z,10.09
2023-01-02T02:51:49.598Z,10.08
2023-01-02T02:52:49.612Z,10.08
2023-01-02T02:53:49.567Z,10.07
2023-01-02T02:54:49.571Z,10.04
2023-01-02T02:55:49.544Z,10.02
2023-01-02T02:56:49.546Z,10.01
2023-01-02T02:57:49.546Z,10.02
2023-01-02T02:58:49.524Z,10.01
2023-01-02T02:59:49.504Z,10.04
2023-01-02T03:00:49.599Z,10.02
2023-01-02T03:01:49.707Z,10.04
2023-01-02T03:02:49.570Z,10.07
2023-01-02T03:03:49.477Z,10.09
2023-01-02T03:04:49.464Z,10.12
2023-01-02T03:05:49.434Z,10.14
2023-01-02T03:06:49.452Z,10.14
2023-01-02T03:07:49.418Z,10.17
2023-01-02T03:08:49.462Z,10.18
2023-01-02T03:09:49.406Z,10.18
2023-01-02T03:10:49.411Z,10.17
2023-01-02T03:11:49.381Z,10.17
2023-01-02T03:12:49.421Z,10.15
2023-01-02T03:13:49.354Z,10.17
2023-01-02T03:14:49.384Z,10.17
2023-01-02T03:15:49.332Z,10.15
2023-01-02T03:16:49.381Z,10.18
2023-01-02T03:17:49.306Z,10.18
2023-01-02T03:18:49.302Z,10.20
2023-01-02T03:19:49.319Z,10.22
2023-01-02T03:20:49.285Z,10.18
2023-01-02T03:21:49.288Z,10.22
2023-01-02T03:22:49.258Z,10.20
2023-01-02T03:23:49.276Z,10.20
2023-01-02T03:24:49.240Z,10.20
2023-01-02T03:25:49.250Z,10.20
2023-01-02T03:26:49.218Z,10.20
2023-01-02T03:27:49.235Z,10.22
2023-01-02T03:28:49.203Z,10.23
2023-01-02T03:29:49.215Z,10.23
2023-01-02T03:30:49.260Z,10.22
2023-01-02T03:31:49.187Z,10.23
2023-01-02T03:32:49.159Z,10.23
2023-01-02T03:33:49.169Z,10.22
2023-01-02T03:34:49.158Z,10.18
2023-01-02T03:35:49.147Z,10.18
2023-01-02T03:36:49.116Z,10.20
2023-01-02T03:37:49.124Z,10.18
2023-01-02T03:38:49.100Z,10.17
2023-01-02T03:39:49.092Z,10.15
2023-01-02T03:40:49.087Z,10.14
2023-01-02T03:41:49.103Z,10.12
2023-01-02T03:42:49.056Z,10.12
2023-01-02T03:43:56.358Z,10.15
2023-01-02T03:44:49.030Z,10.17
2023-01-02T03:45:49.091Z,10.15
2023-01-02T03:46:49.027Z,10.15
2023-01-02T03:47:49.038Z,10.17
2023-01-02T03:48:48.998Z,10.18
2023-01-02T03:49:49.021Z,10.22
2023-01-02T03:50:48.968Z,10.23
2023-01-02T03:51:48.968Z,10.29
2023-01-02T03:52:48.954Z,10.32
2023-01-02T03:53:48.964Z,10.34
2023-01-02T03:54:48.933Z,10.34
2023-01-02T03:55:48.936Z,10.36
2023-01-02T03:56:48.897Z,10.38
2023-01-02T03:57:55.201Z,10.33
2023-01-02T03:58:48.888Z,10.33
2023-01-02T03:59:48.890Z,10.33
2023-01-02T04:00:48.861Z,10.30
2023-01-02T04:01:48.950Z,10.30
2023-01-02T04:02:48.910Z,10.29
2023-01-02T04:03:48.863Z,10.27
2023-01-02T04:04:51.098Z,10.27
2023-01-02T04:05:48.817Z,10.25
2023-01-02T04:06:48.796Z,10.25
2023-01-02T04:07:48.838Z,10.26
2023-01-02T04:08:48.781Z,10.26
2023-01-02T04:09:48.795Z,10.25
2023-01-02T04:10:51.778Z,10.26
2023-01-02T04:11:48.771Z,10.25
2023-01-02T04:12:48.752Z,10.20
2023-01-02T04:13:48.754Z,10.17
2023-01-02T04:14:48.733Z,10.11
2023-01-02T04:15:48.733Z,10.08
2023-01-02T04:16:48.682Z,10.07
2023-01-02T04:17:48.703Z,10.08
2023-01-02T04:18:48.673Z,10.05
2023-01-02T04:19:48.669Z,10.07
2023-01-02T04:20:48.652Z,10.08
2023-01-02T04:21:48.651Z,10.07
2023-01-02T04:22:48.618Z,10.07
2023-01-02T04:23:48.627Z,10.05
2023-01-02T04:24:48.614Z,10.08
2023-01-02T04:25:48.612Z,10.09
2023-01-02T04:26:48.605Z,10.11
2023-01-02T04:27:48.588Z,10.09
2023-01-02T04:28:48.557Z,10.08
2023-01-02T04:29:48.571Z,10.08
2023-01-02T04:30:48.567Z,10.08
2023-01-02T04:31:48.540Z,10.09
2023-01-02T04:32:48.519Z,10.08
2023-01-02T04:33:48.519Z,10.08
2023-01-02T04:34:48.510Z,10.07
2023-01-02T04:35:48.522Z,10.07
2023-01-02T04:36:48.479Z,10.05
2023-01-02T04:37:48.479Z,10.01
2023-01-02T04:38:48.449Z,9.99
2023-01-02T04:39:48.478Z,9.97
2023-01-02T04:40:48.441Z,9.97
2023-01-02T04:41:48.440Z,9.96
2023-01-02T04:42:48.410Z,9.94
2023-01-02T04:43:48.415Z,9.91
2023-01-02T04:44:48.388Z,9.89
2023-01-02T04:45:48.394Z,9.89
2023-01-02T04:46:48.381Z,9.86
2023-01-02T04:47:48.386Z,9.86
2023-01-02T04:48:48.346Z,9.86
2023-01-02T04:49:48.371Z,9.84
2023-01-02T04:50:48.341Z,9.87
2023-01-02T04:51:48.339Z,9.90
2023-01-02T04:52:48.324Z,9.91
2023-01-02T04:53:48.331Z,9.91
2023-01-02T04:54:48.300Z,9.91
2023-01-02T04:55:48.289Z,9.91
2023-01-02T04:56:48.259Z,9.91
2023-01-02T04:57:48.273Z,9.91
2023-01-02T04:58:48.260Z,9.94
2023-01-02T04:59:48.304Z,9.94
2023-01-02T05:00:48.217Z,9.93
2023-01-02T05:01:48.327Z,9.90
2023-01-02T05:02:48.237Z,9.91
2023-01-02T05:03:48.331Z,9.91
2023-01-02T05:04:48.179Z,9.91
2023-01-02T05:05:48.181Z,9.90
2023-01-02T05:06:48.155Z,9.91
2023-01-02T05:07:48.171Z,9.90
2023-01-02T05:08:48.143Z,9.91
2023-01-02T05:09:48.141Z,9.87
2023-01-02T05:10:48.131Z,9.89
2023-01-02T05:11:48.116Z,9.87
2023-01-02T05:12:48.089Z,9.86
2023-01-02T05:13:48.112Z,9.84
2023-01-02T05:14:48.072Z,9.84
2023-01-02T05:15:48.138Z,9.83
2023-01-02T05:16:48.062Z,9.81
2023-01-02T05:17:48.085Z,9.81
2023-01-02T05:18:48.031Z,9.84
2023-01-02T05:19:48.058Z,9.87
2023-01-02T05:20:48.007Z,9.86
2023-01-02T05:21:48.022Z,9.86
2023-01-02T05:22:47.988Z,9.86
2023-01-02T05:23:47.998Z,9.86
2023-01-02T05:24:47.971Z,9.89
2023-01-02T05:25:48.001Z,9.87
2023-01-02T05:26:47.943Z,9.90
2023-01-02T05:27:47.985Z,9.91
2023-01-02T05:28:47.936Z,9.93
2023-01-02T05:29:47.938Z,9.91
2023-01-02T05:30:47.974Z,9.91
2023-01-02T05:31:47.921Z,9.91
2023-01-02T05:32:47.891Z,9.91
2023-01-02T05:33:47.901Z,9.89
2023-01-02T05:34:47.854Z,9.89
2023-01-02T05:35:47.871Z,9.89
2023-01-02T05:36:47.840Z,9.87
2023-01-02T05:37:47.850Z,9.87
2023-01-02T05:38:47.818Z,9.86
2023-01-02T05:39:47.835Z,9.84
2023-01-02T05:40:47.817Z,9.84
2023-01-02T05:41:47.833Z,9.81
2023-01-02T05:42:47.778Z,9.83
2023-01-02T05:43:47.779Z,9.83
2023-01-02T05:44:47.759Z,9.83
2023-01-02T05:45:47.772Z,9.87
2023-01-02T05:46:47.774Z,9.89
2023-01-02T05:47:47.771Z,9.87
2023-01-02T05:48:47.717Z,9.87
2023-01-02T05:49:47.738Z,9.87
2023-01-02T05:50:47.693Z,9.87
2023-01-02T05:51:47.712Z,9.87
2023-01-02T05:52:47.680Z,9.86
2023-01-02T05:53:47.699Z,9.87
2023-01-02T05:54:47.648Z,9.86
2023-01-02T05:55:47.657Z,9.86
2023-01-02T05:56:47.644Z,9.86
2023-01-02T05:57:47.654Z,9.86
2023-01-02T05:58:47.611Z,9.87
2023-01-02T05:59:47.613Z,9.89
2023-01-02T06:00:47.583Z,9.87
2023-01-02T06:01:47.758Z,9.84
2023-01-02T06:02:48.581Z,9.81
2023-01-02T06:03:47.600Z,9.81
2023-01-02T06:04:47.542Z,9.81
2023-01-02T06:05:47.560Z,9.81
2023-01-02T06:06:47.546Z,9.81
2023-01-02T06:07:47.545Z,9.83
2023-01-02T06:08:47.500Z,9.83
2023-01-02T06:09:47.515Z,9.84
2023-01-02T06:10:47.479Z,9.83
2023-01-02T06:11:47.498Z,9.79
2023-01-02T06:12:47.470Z,9.79
2023-01-02T06:13:47.474Z,9.78
2023-01-02T06:14:47.442Z,9.78
2023-01-02T06:15:47.447Z,9.78
2023-01-02T06:16:47.458Z,9.78
2023-01-02T06:17:47.442Z,9.79
2023-01-02T06:18:47.405Z,9.79
2023-01-02T06:19:53.676Z,9.83
2023-01-02T06:20:47.389Z,9.83
2023-01-02T06:21:47.400Z,9.79
2023-01-02T06:22:47.352Z,9.79
2023-01-02T06:23:47.395Z,9.79
2023-01-02T06:24:47.354Z,9.81
2023-01-02T06:25:47.362Z,9.79
2023-01-02T06:26:47.554Z,9.78
2023-01-02T06:27:47.339Z,9.79
2023-01-02T06:28:47.286Z,9.78
2023-01-02T06:29:47.304Z,9.76
2023-01-02T06:30:47.277Z,9.76
2023-01-02T06:31:51.325Z,9.75
2023-01-02T06:32:47.244Z,9.75
2023-01-02T06:33:47.264Z,9.76
2023-01-02T06:34:47.229Z,9.74
2023-01-02T06:35:47.233Z,9.75
2023-01-02T06:36:47.224Z,9.76
2023-01-02T06:37:47.216Z,9.79
2023-01-02T06:38:47.183Z,9.79
2023-01-02T06:39:47.213Z,9.76
2023-01-02T06:40:47.161Z,9.78
2023-01-02T06:41:47.173Z,9.81
2023-01-02T06:42:47.137Z,9.84
2023-01-02T06:43:47.129Z,9.84
2023-01-02T06:44:47.138Z,9.86
2023-01-02T06:45:47.156Z,9.83
2023-01-02T06:46:47.052Z,9.87
2023-01-02T06:47:47.061Z,9.87
2023-01-02T06:48:47.032Z,9.86
2023-01-02T06:49:47.117Z,9.87
2023-01-02T06:50:47.054Z,9.87
2023-01-02T06:51:47.076Z,9.87
2023-01-02T06:52:46.990Z,9.86
2023-01-02T06:53:47.096Z,9.90
2023-01-02T06:54:47.028Z,9.89
2023-01-02T06:55:46.993Z,9.87
2023-01-02T06:56:46.942Z,9.89
2023-01-02T06:57:46.961Z,9.89
2023-01-02T06:58:46.916Z,9.87
2023-01-02T06:59:46.927Z,9.86
2023-01-02T07:00:46.959Z,9.86
2023-01-02T07:01:47.166Z,9.84
2023-01-02T07:02:47.035Z,9.83
2023-01-02T07:03:46.888Z,9.79
2023-01-02T07:04:46.856Z,9.79
2023-01-02T07:05:46.859Z,9.78
2023-01-02T07:06:46.847Z,9.78
2023-01-02T07:07:46.835Z,9.81
2023-01-02T07:08:46.834Z,9.81
2023-01-02T07:09:46.835Z,9.79
2023-01-02T07:10:52.648Z,9.81
2023-01-02T07:11:46.809Z,9.81
2023-01-02T07:12:46.769Z,9.81
2023-01-02T07:13:46.796Z,9.79
2023-01-02T07:14:46.759Z,9.81
2023-01-02T07:15:46.762Z,9.79
2023-01-02T07:16:46.790Z,9.81
2023-01-02T07:17:46.741Z,9.81
2023-01-02T07:18:46.740Z,9.81
2023-01-02T07:19:53.090Z,9.81
2023-01-02T07:20:46.690Z,9.78
2023-01-02T07:21:46.706Z,9.81
2023-01-02T07:22:46.667Z,9.79
2023-01-02T07:23:46.700Z,9.79
2023-01-02T07:24:46.642Z,9.81
2023-01-02T07:25:46.657Z,9.83
2023-01-02T07:26:46.621Z,9.84
2023-01-02T07:27:46.638Z,9.83
2023-01-02T07:28:46.625Z,9.86
2023-01-02T07:29:46.605Z,9.86
2023-01-02T07:30:46.579Z,9.89
2023-01-02T07:31:46.694Z,9.87
2023-01-02T07:32:46.588Z,9.89
2023-01-02T07:33:46.542Z,9.90
2023-01-02T07:34:46.559Z,9.87
2023-01-02T07:35:46.540Z,9.89
2023-01-02T07:36:46.545Z,9.89
2023-01-02T07:37:46.522Z,9.89
2023-01-02T07:38:46.518Z,9.91
2023-01-02T07:39:46.496Z,9.89
2023-01-02T07:40:46.486Z,9.89
2023-01-02T07:41:46.457Z,9.90
2023-01-02T07:42:46.467Z,9.90
2023-01-02T07:43:46.453Z,9.91
2023-01-02T07:44:46.465Z,9.91
2023-01-02T07:45:50.074Z,9.94
2023-01-02T07:46:46.467Z,9.96
2023-01-02T07:47:46.396Z,9.93
2023-01-02T07:48:46.427Z,9.96
2023-01-02T07:49:46.390Z,9.93
2023-01-02T07:50:46.387Z,9.93
2023-01-02T07:51:46.354Z,9.93
2023-01-02T07:52:46.366Z,9.93
2023-01-02T07:53:46.343Z,9.93
2023-01-02T07:54:46.369Z,9.94
2023-01-02T07:55:46.318Z,9.91
2023-01-02T07:56:46.329Z,9.94
2023-01-02T07:57:46.330Z,9.94
2023-01-02T07:58:46.307Z,9.93
2023-01-02T07:59:46.285Z,9.93
2023-01-02T08:00:46.295Z,9.93
2023-01-02T08:01:46.401Z,9.93
2023-01-02T08:02:46.254Z,9.94
2023-01-02T08:03:46.274Z,9.96
2023-01-02T08:04:46.231Z,9.96
2023-01-02T08:05:46.217Z,9.96
2023-01-02T08:06:46.211Z,9.99
2023-01-02T08:07:46.193Z,9.97
2023-01-02T08:08:46.204Z,9.99
2023-01-02T08:09:46.168Z,9.99
2023-01-02T08:10:46.201Z,10.01
2023-01-02T08:11:46.182Z,10.01
2023-01-02T08:12:46.147Z,10.04
2023-01-02T08:13:46.121Z,10.05
2023-01-02T08:14:46.143Z,10.05
2023-01-02T08:15:46.104Z,10.07
2023-01-02T08:16:46.173Z,10.07
2023-01-02T08:17:46.076Z,10.07
2023-01-02T08:18:46.079Z,10.09
2023-01-02T08:19:46.061Z,10.09
2023-01-02T08:20:46.082Z,10.09
2023-01-02T08:21:46.043Z,10.11
2023-01-02T08:22:46.054Z,10.14
2023-01-02T08:23:46.076Z,10.14
2023-01-02T08:24:46.034Z,10.14
2023-01-02T08:25:45.996Z,10.15
2023-01-02T08:26:46.016Z,10.15
2023-01-02T08:27:45.984Z,10.17
2023-01-02T08:28:45.998Z,10.18
2023-01-02T08:29:45.956Z,10.23
2023-01-02T08:30:45.974Z,10.25
2023-01-02T08:31:45.929Z,10.27
2023-01-02T08:32:45.955Z,10.30
2023-01-02T08:33:45.919Z,10.33
2023-01-02T08:34:45.931Z,10.36
2023-01-02T08:35:45.892Z,10.40
2023-01-02T08:36:45.912Z,10.42
2023-01-02T08:37:50.476Z,10.44
2023-01-02T08:38:45.897Z,10.51
2023-01-02T08:39:45.847Z,10.51
2023-01-02T08:40:45.852Z,10.56
2023-01-02T08:41:45.839Z,10.60
2023-01-02T08:42:45.843Z,10.64
2023-01-02T08:43:45.803Z,10.67
2023-01-02T08:44:45.831Z,10.70
2023-01-02T08:45:45.875Z,10.73
2023-01-02T08:46:45.883Z,10.76
2023-01-02T08:47:45.763Z,10.78
2023-01-02T08:48:45.766Z,10.78
2023-01-02T08:49:45.751Z,10.79
2023-01-02T08:50:45.765Z,10.79
2023-01-02T08:51:45.724Z,10.81
2023-01-02T08:52:45.737Z,10.84
2023-01-02T08:53:45.696Z,10.85
2023-01-02T08:54:45.703Z,10.89
2023-01-02T08:55:45.707Z,10.94
2023-01-02T08:56:45.709Z,10.97
2023-01-02T08:57:45.651Z,10.99
2023-01-02T08:58:52.066Z,11.06
2023-01-02T08:59:45.644Z,11.06
2023-01-02T09:00:45.657Z,11.09
2023-01-02T09:01:45.808Z,11.11
2023-01-02T09:02:45.761Z,11.18
2023-01-02T09:03:45.593Z,11.22
2023-01-02T09:04:45.615Z,11.25
2023-01-02T09:05:45.568Z,11.29
2023-01-02T09:06:45.599Z,11.35
2023-01-02T09:07:45.545Z,11.39
2023-01-02T09:08:45.566Z,11.42
2023-01-02T09:09:45.547Z,11.44
2023-01-02T09:10:45.530Z,11.47
2023-01-02T09:11:45.506Z,11.51
2023-01-02T09:12:45.533Z,11.54
2023-01-02T09:13:45.482Z,11.55
2023-01-02T09:14:45.506Z,11.58
2023-01-02T09:15:45.515Z,11.58
2023-01-02T09:16:45.467Z,11.61
2023-01-02T09:17:45.460Z,11.62
2023-01-02T09:18:45.462Z,11.67
2023-01-02T09:19:45.418Z,11.72
2023-01-02T09:20:45.422Z,11.73
2023-01-02T09:21:45.407Z,11.76
2023-01-02T09:22:45.454Z,11.78
2023-01-02T09:23:45.388Z,11.78
2023-01-02T09:24:45.379Z,11.79
2023-01-02T09:25:45.354Z,11.78
2023-01-02T09:26:45.440Z,11.75
2023-01-02T09:27:45.349Z,11.78
2023-01-02T09:28:45.377Z,11.79
2023-01-02T09:29:45.317Z,11.83
2023-01-02T09:30:45.375Z,11.90
2023-01-02T09:31:45.316Z,11.90
2023-01-02T09:32:45.311Z,11.91
2023-01-02T09:33:45.268Z,11.95
2023-01-02T09:34:45.297Z,11.96
2023-01-02T09:35:45.247Z,11.96
2023-01-02T09:36:45.248Z,12.01
2023-01-02T09:37:45.226Z,12.04
2023-01-02T09:38:45.248Z,12.05
2023-01-02T09:39:45.253Z,12.12
2023-01-02T09:40:45.223Z,12.16
2023-01-02T09:41:45.183Z,12.19
2023-01-02T09:42:45.211Z,12.27
2023-01-02T09:43:45.164Z,12.31
2023-01-02T09:44:45.205Z,12.34
2023-01-02T09:45:45.143Z,12.37
2023-01-02T09:46:45.247Z,12.38
2023-01-02T09:47:45.137Z,12.39
2023-01-02T09:48:45.141Z,12.42
2023-01-02T09:49:45.095Z,12.45
2023-01-02T09:50:45.129Z,12.47
2023-01-02T09:51:45.073Z,12.53
2023-01-02T09:52:45.118Z,12.56
2023-01-02T09:53:45.054Z,12.57
2023-01-02T09:54:45.068Z,12.57
2023-01-02T09:55:45.029Z,12.57
2023-01-02T09:56:45.051Z,12.64
2023-01-02T09:57:45.009Z,12.68
2023-01-02T09:58:45.012Z,12.70
2023-01-02T09:59:45.005Z,12.75
2023-01-02T10:00:45.009Z,12.77
2023-01-02T10:01:45.031Z,12.83
2023-01-02T10:02:45.020Z,12.90
2023-01-02T10:03:45.084Z,12.95
2023-01-02T10:04:44.967Z,12.93
2023-01-02T10:05:44.941Z,12.96
2023-01-02T10:06:45.004Z,13.03
2023-01-02T10:07:44.902Z,13.05
2023-01-02T10:08:44.926Z,13.05
2023-01-02T10:09:44.883Z,13.10
2023-01-02T10:10:44.899Z,13.17
2023-01-02T10:11:44.874Z,13.17
2023-01-02T10:12:44.929Z,13.23
2023-01-02T10:14:17.228Z,13.30
2023-01-02T10:14:45.003Z,13.32
2023-01-02T10:15:44.841Z,13.36
2023-01-02T10:16:44.820Z,13.41
2023-01-02T10:17:44.814Z,13.44
2023-01-02T10:18:44.806Z,13.48
2023-01-02T10:19:44.874Z,13.51
2023-01-02T10:20:44.779Z,13.52
2023-01-02T10:21:44.758Z,13.52
2023-01-02T10:22:44.805Z,13.51
2023-01-02T10:23:44.735Z,13.55
2023-01-02T10:24:44.747Z,13.45
2023-01-02T10:25:51.111Z,13.45
2023-01-02T10:26:44.743Z,13.48
2023-01-02T10:27:44.688Z,13.57
2023-01-02T10:28:44.694Z,13.62
2023-01-02T10:29:44.671Z,13.66
2023-01-02T10:30:44.694Z,13.71
2023-01-02T10:31:44.676Z,13.71
2023-01-02T10:32:44.669Z,13.77
2023-01-02T10:33:44.634Z,13.84
2023-01-02T10:34:44.686Z,13.84
2023-01-02T10:35:44.611Z,13.87
2023-01-02T10:36:44.614Z,13.78
2023-01-02T10:37:44.590Z,13.71
2023-01-02T10:38:44.649Z,13.75
2023-01-02T10:39:44.572Z,13.81
2023-01-02T10:40:44.621Z,13.85
2023-01-02T10:41:44.545Z,13.92
2023-01-02T10:42:44.565Z,13.99
2023-01-02T10:43:44.529Z,14.07
2023-01-02T10:44:44.560Z,14.15
2023-01-02T10:45:44.503Z,14.21
2023-01-02T10:46:44.592Z,14.21
2023-01-02T10:47:44.485Z,14.22
2023-01-02T10:48:48.487Z,14.29
2023-01-02T10:49:44.479Z,14.33
2023-01-02T10:50:44.487Z,14.36
2023-01-02T10:51:44.438Z,14.39
2023-01-02T10:52:44.460Z,14.40
2023-01-02T10:53:44.427Z,14.45
2023-01-02T10:54:49.131Z,14.47
2023-01-02T10:55:44.419Z,14.46
2023-01-02T10:56:44.435Z,14.51
2023-01-02T10:57:44.398Z,14.52
2023-01-02T10:58:44.395Z,14.42
2023-01-02T10:59:44.361Z,14.40
2023-01-02T11:00:44.464Z,14.42
2023-01-02T11:01:44.498Z,14.42
2023-01-02T11:02:44.454Z,14.46
2023-01-02T11:03:44.314Z,14.51
2023-01-02T11:04:44.361Z,14.55
2023-01-02T11:05:44.290Z,14.55
2023-01-02T11:06:44.300Z,14.52
2023-01-02T11:07:44.291Z,14.58
2023-01-02T11:08:44.291Z,14.60
2023-01-02T11:09:44.255Z,14.60
2023-01-02T11:10:44.268Z,14.64
2023-01-02T11:11:44.229Z,14.69
2023-01-02T11:12:44.253Z,14.70
2023-01-02T11:13:47.592Z,14.68
2023-01-02T11:14:44.266Z,14.69
2023-01-02T11:15:44.181Z,14.75
2023-01-02T11:16:44.228Z,14.78
2023-01-02T11:17:44.236Z,14.83
2023-01-02T11:18:44.205Z,14.91
2023-01-02T11:19:44.162Z,14.84
2023-01-02T11:20:44.140Z,14.73
2023-01-02T11:21:44.136Z,14.69
2023-01-02T11:22:44.145Z,14.68
2023-01-02T11:23:44.110Z,14.75
2023-01-02T11:24:44.133Z,14.81
2023-01-02T11:25:44.091Z,14.95
2023-01-02T11:26:44.126Z,15.10
2023-01-02T11:27:44.055Z,15.20
2023-01-02T11:28:44.061Z,15.31
2023-01-02T11:29:44.031Z,15.39
2023-01-02T11:30:44.123Z,15.49
2023-01-02T11:31:44.104Z,15.54
2023-01-02T11:32:44.050Z,15.60
2023-01-02T11:33:43.985Z,15.60
2023-01-02T11:34:44.002Z,15.64
2023-01-02T11:35:43.967Z,15.72
2023-01-02T11:36:44.009Z,15.78
2023-01-02T11:37:43.951Z,15.83
2023-01-02T11:38:43.957Z,15.90
2023-01-02T11:39:43.926Z,16.00
2023-01-02T11:40:43.926Z,16.02
2023-01-02T11:41:43.928Z,16.08
2023-01-02T11:42:43.917Z,16.08
2023-01-02T11:43:43.876Z,16.14
2023-01-02T11:44:43.875Z,16.14
2023-01-02T11:45:43.890Z,16.15
2023-01-02T11:46:43.870Z,16.21
2023-01-02T11:47:43.878Z,16.25
2023-01-02T11:48:43.823Z,16.25
2023-01-02T11:49:43.838Z,16.25
2023-01-02T11:50:43.798Z,16.25
2023-01-02T11:51:43.814Z,16.28
2023-01-02T11:52:43.805Z,16.24
2023-01-02T11:53:43.786Z,16.17
2023-01-02T11:54:43.757Z,16.21
2023-01-02T11:55:43.758Z,16.24
2023-01-02T11:56:43.748Z,16.38
2023-01-02T11:57:43.752Z,16.56
2023-01-02T11:58:43.740Z,16.79
2023-01-02T11:59:43.727Z,17.15
2023-01-02T12:00:43.690Z,17.40
2023-01-02T12:01:43.861Z,17.56
2023-01-02T12:02:43.742Z,17.74
2023-01-02T12:03:43.733Z,17.95
2023-01-02T12:04:43.675Z,18.07
2023-01-02T12:05:43.674Z,18.32
2023-01-02T12:06:43.627Z,18.30
2023-01-02T12:07:43.666Z,18.23
2023-01-02T12:08:50.878Z,18.15
2023-01-02T12:09:43.614Z,18.12
2023-01-02T12:10:43.590Z,18.20
2023-01-02T12:11:43.597Z,18.25
2023-01-02T12:12:43.607Z,18.25
2023-01-02T12:13:43.584Z,18.20
2023-01-02T12:14:43.543Z,18.27
2023-01-02T12:15:43.564Z,18.33
2023-01-02T12:16:43.580Z,18.39
2023-01-02T12:17:43.542Z,18.36
2023-01-02T12:18:43.534Z,18.23
2023-01-02T12:19:43.516Z,18.17
2023-01-02T12:20:43.477Z,18.20
2023-01-02T12:21:43.499Z,18.29
2023-01-02T12:22:43.453Z,18.37
2023-01-02T12:23:43.457Z,18.42
2023-01-02T12:24:43.474Z,18.57
2023-01-02T12:25:43.436Z,18.70
2023-01-02T12:26:43.424Z,18.82
2023-01-02T12:27:43.443Z,18.81
2023-01-02T12:28:43.422Z,18.84
2023-01-02T12:29:45.991Z,18.69
2023-01-02T12:30:43.367Z,18.63
2023-01-02T12:31:43.399Z,18.69
2023-01-02T12:32:43.343Z,18.65
2023-01-02T12:33:43.369Z,18.60
2023-01-02T12:34:43.352Z,18.54
2023-01-02T12:35:43.330Z,18.50
2023-01-02T12:36:43.307Z,18.39
2023-01-02T12:37:43.329Z,18.33
2023-01-02T12:38:43.280Z,18.20
2023-01-02T12:39:43.322Z,18.15
2023-01-02T12:40:43.318Z,18.14
2023-01-02T12:42:01.028Z,18.27
2023-01-02T12:42:43.265Z,18.50
2023-01-02T12:43:43.251Z,18.84
2023-01-02T12:44:43.224Z,19.13
2023-01-02T12:45:43.301Z,19.54
2023-01-02T12:46:43.198Z,19.76
2023-01-02T12:47:43.199Z,20.02
2023-01-02T12:48:43.174Z,20.33
2023-01-02T12:49:43.218Z,20.61
2023-01-02T12:50:48.652Z,20.57
2023-01-02T12:51:43.213Z,20.32
2023-01-02T12:52:43.131Z,20.02
2023-01-02T12:53:43.132Z,19.74
2023-01-02T12:54:43.113Z,19.48
2023-01-02T12:55:43.300Z,19.36
2023-01-02T12:56:43.120Z,19.33
2023-01-02T12:57:43.127Z,19.18
2023-01-02T12:58:43.071Z,19.08
2023-01-02T12:59:43.073Z,18.87
2023-01-02T13:00:43.042Z,18.81